sensor_id;sensor_type;location;lat;lon;timestamp;temperature;humidity
23579;DHT22;11967;50.852;4.400;2024-01-30T00:02:17;14.00;99.90
23579;DHT22;11967;50.852;4.400;2024-01-30T00:04:42;14.00;99.90
23579;DHT22;11967;50.852;4.400;2024-01-30T00:07:08;14.00;99.90
23579;DHT22;11967;50.852;4.400;2024-01-30T00:09:34;14.00;99.90
23579;DHT22;11967;50.852;4.400;2024-01-30T00:11:59;14.10;99.90
23579;DHT22;11967;50.852;4.400;2024-01-30T00:14:25;14.10;99.90
23579;DHT22;11967;50.852;4.400;2024-01-30T00:16:51;14.20;99.90
23579;DHT22;11967;50.852;4.400;2024-01-30T00:19:21;14.30;99.90
23579;DHT22;11967;50.852;4.400;2024-01-30T00:21:46;14.30;99.90
23579;DHT22;11967;50.852;4.400;2024-01-30T00:24:12;14.10;99.90
23579;DHT22;11967;50.852;4.400;2024-01-30T00:26:38;14.20;99.90
23579;DHT22;11967;50.852;4.400;2024-01-30T00:29:03;14.20;99.90
23579;DHT22;11967;50.852;4.400;2024-01-30T00:31:29;14.20;99.90
23579;DHT22;11967;50.852;4.400;2024-01-30T00:33:55;14.10;99.90
23579;DHT22;11967;50.852;4.400;2024-01-30T00:36:20;14.10;99.90
23579;DHT22;11967;50.852;4.400;2024-01-30T00:38:46;14.10;99.90
23579;DHT22;11967;50.852;4.400;2024-01-30T00:41:13;14.00;99.90
23579;DHT22;11967;50.852;4.400;2024-01-30T00:43:39;14.00;99.90
23579;DHT22;11967;50.852;4.400;2024-01-30T00:46:05;14.10;99.90
23579;DHT22;11967;50.852;4.400;2024-01-30T00:48:31;14.20;99.90
23579;DHT22;11967;50.852;4.400;2024-01-30T00:50:57;14.20;99.90
23579;DHT22;11967;50.852;4.400;2024-01-30T00:53:22;14.30;99.90
23579;DHT22;11967;50.852;4.400;2024-01-30T00:55:48;14.30;99.90
23579;DHT22;11967;50.852;4.400;2024-01-30T00:58:13;14.30;99.90
23579;DHT22;11967;50.852;4.400;2024-01-30T01:00:39;14.30;99.90
23579;DHT22;11967;50.852;4.400;2024-01-30T01:03:05;14.20;99.90
23579;DHT22;11967;50.852;4.400;2024-01-30T01:05:31;14.30;99.90
23579;DHT22;11967;50.852;4.400;2024-01-30T01:07:56;14.20;99.90
23579;DHT22;11967;50.852;4.400;2024-01-30T01:10:23;14.20;99.90
23579;DHT22;11967;50.852;4.400;2024-01-30T01:12:50;14.10;99.90
23579;DHT22;11967;50.852;4.400;2024-01-30T01:15:16;14.10;99.90
23579;DHT22;11967;50.852;4.400;2024-01-30T01:17:42;14.20;99.90
23579;DHT22;11967;50.852;4.400;2024-01-30T01:20:11;14.10;99.90
23579;DHT22;11967;50.852;4.400;2024-01-30T01:22:37;14.20;99.90
23579;DHT22;11967;50.852;4.400;2024-01-30T01:25:06;14.20;99.90
23579;DHT22;11967;50.852;4.400;2024-01-30T01:27:37;14.20;99.90
23579;DHT22;11967;50.852;4.400;2024-01-30T01:30:10;14.20;99.90
23579;DHT22;11967;50.852;4.400;2024-01-30T01:32:37;14.20;99.90
23579;DHT22;11967;50.852;4.400;2024-01-30T01:35:04;14.20;99.90
23579;DHT22;11967;50.852;4.400;2024-01-30T01:37:31;14.20;99.90
23579;DHT22;11967;50.852;4.400;2024-01-30T01:39:57;14.30;99.90
23579;DHT22;11967;50.852;4.400;2024-01-30T01:42:23;14.30;99.90
23579;DHT22;11967;50.852;4.400;2024-01-30T01:44:48;14.30;99.90
23579;DHT22;11967;50.852;4.400;2024-01-30T01:47:15;14.30;99.90
23579;DHT22;11967;50.852;4.400;2024-01-30T01:49:41;14.30;99.90
23579;DHT22;11967;50.852;4.400;2024-01-30T01:52:06;14.40;99.90
23579;DHT22;11967;50.852;4.400;2024-01-30T01:54:32;14.40;99.90
23579;DHT22;11967;50.852;4.400;2024-01-30T01:56:59;14.40;99.90
23579;DHT22;11967;50.852;4.400;2024-01-30T01:59:25;14.40;99.90
23579;DHT22;11967;50.852;4.400;2024-01-30T02:01:52;14.40;99.90
23579;DHT22;11967;50.852;4.400;2024-01-30T02:04:18;14.40;99.90
23579;DHT22;11967;50.852;4.400;2024-01-30T02:06:44;14.40;99.90
23579;DHT22;11967;50.852;4.400;2024-01-30T02:09:10;14.40;99.90
23579;DHT22;11967;50.852;4.400;2024-01-30T02:11:36;14.40;99.90
23579;DHT22;11967;50.852;4.400;2024-01-30T02:14:05;14.40;99.90
23579;DHT22;11967;50.852;4.400;2024-01-30T02:16:31;14.30;99.90
23579;DHT22;11967;50.852;4.400;2024-01-30T02:18:57;14.30;99.90
23579;DHT22;11967;50.852;4.400;2024-01-30T02:21:23;14.40;99.90
23579;DHT22;11967;50.852;4.400;2024-01-30T02:23:49;14.40;99.90
23579;DHT22;11967;50.852;4.400;2024-01-30T02:26:15;14.40;99.90
23579;DHT22;11967;50.852;4.400;2024-01-30T02:28:41;14.40;99.90
23579;DHT22;11967;50.852;4.400;2024-01-30T02:31:07;14.40;99.90
23579;DHT22;11967;50.852;4.400;2024-01-30T02:33:32;14.40;99.90
23579;DHT22;11967;50.852;4.400;2024-01-30T02:35:58;14.30;99.90
23579;DHT22;11967;50.852;4.400;2024-01-30T02:38:24;14.30;99.90
23579;DHT22;11967;50.852;4.400;2024-01-30T02:40:50;14.30;99.90
23579;DHT22;11967;50.852;4.400;2024-01-30T02:43:16;14.30;99.90
23579;DHT22;11967;50.852;4.400;2024-01-30T02:45:42;14.30;99.90
23579;DHT22;11967;50.852;4.400;2024-01-30T02:48:08;14.30;99.90
23579;DHT22;11967;50.852;4.400;2024-01-30T02:50:33;14.20;99.90
23579;DHT22;11967;50.852;4.400;2024-01-30T02:52:59;14.30;99.90
23579;DHT22;11967;50.852;4.400;2024-01-30T02:55:25;14.30;99.90
23579;DHT22;11967;50.852;4.400;2024-01-30T02:57:50;14.30;99.90
23579;DHT22;11967;50.852;4.400;2024-01-30T03:00:16;14.20;99.90
23579;DHT22;11967;50.852;4.400;2024-01-30T03:02:41;14.20;99.90
23579;DHT22;11967;50.852;4.400;2024-01-30T03:05:08;14.10;99.90
23579;DHT22;11967;50.852;4.400;2024-01-30T03:07:34;14.10;99.90
23579;DHT22;11967;50.852;4.400;2024-01-30T03:10:00;14.20;99.90
23579;DHT22;11967;50.852;4.400;2024-01-30T03:12:26;14.10;99.90
23579;DHT22;11967;50.852;4.400;2024-01-30T03:14:51;14.10;99.90
23579;DHT22;11967;50.852;4.400;2024-01-30T03:17:18;14.10;99.90
23579;DHT22;11967;50.852;4.400;2024-01-30T03:19:43;14.10;99.90
23579;DHT22;11967;50.852;4.400;2024-01-30T03:22:09;14.10;99.90
23579;DHT22;11967;50.852;4.400;2024-01-30T03:24:34;14.20;99.90
23579;DHT22;11967;50.852;4.400;2024-01-30T03:27:00;14.10;99.90
23579;DHT22;11967;50.852;4.400;2024-01-30T03:29:25;14.20;99.90
23579;DHT22;11967;50.852;4.400;2024-01-30T03:31:51;14.20;99.90
23579;DHT22;11967;50.852;4.400;2024-01-30T03:34:17;14.20;99.90
23579;DHT22;11967;50.852;4.400;2024-01-30T03:36:42;14.20;99.90
23579;DHT22;11967;50.852;4.400;2024-01-30T03:39:09;14.10;99.90
23579;DHT22;11967;50.852;4.400;2024-01-30T03:41:35;14.30;99.90
23579;DHT22;11967;50.852;4.400;2024-01-30T03:44:00;14.30;99.90
23579;DHT22;11967;50.852;4.400;2024-01-30T03:46:26;14.20;99.90
23579;DHT22;11967;50.852;4.400;2024-01-30T03:48:51;14.20;99.90
23579;DHT22;11967;50.852;4.400;2024-01-30T03:51:17;14.30;99.90
23579;DHT22;11967;50.852;4.400;2024-01-30T03:53:43;14.30;99.90
23579;DHT22;11967;50.852;4.400;2024-01-30T03:56:09;14.30;99.90
23579;DHT22;11967;50.852;4.400;2024-01-30T03:58:35;14.20;99.90
23579;DHT22;11967;50.852;4.400;2024-01-30T04:01:01;14.10;99.90
23579;DHT22;11967;50.852;4.400;2024-01-30T04:03:26;14.20;99.90
23579;DHT22;11967;50.852;4.400;2024-01-30T04:05:52;14.20;99.90
23579;DHT22;11967;50.852;4.400;2024-01-30T04:08:19;14.20;99.90
23579;DHT22;11967;50.852;4.400;2024-01-30T04:10:46;14.30;99.90
23579;DHT22;11967;50.852;4.400;2024-01-30T04:13:11;14.30;99.90
23579;DHT22;11967;50.852;4.400;2024-01-30T04:15:37;14.30;99.90
23579;DHT22;11967;50.852;4.400;2024-01-30T04:18:03;14.20;99.90
23579;DHT22;11967;50.852;4.400;2024-01-30T04:20:29;14.10;99.90
23579;DHT22;11967;50.852;4.400;2024-01-30T04:22:55;14.20;99.90
23579;DHT22;11967;50.852;4.400;2024-01-30T04:25:21;14.20;99.90
23579;DHT22;11967;50.852;4.400;2024-01-30T04:27:46;14.20;99.90
23579;DHT22;11967;50.852;4.400;2024-01-30T04:30:12;14.30;99.90
23579;DHT22;11967;50.852;4.400;2024-01-30T04:32:38;14.10;99.90
23579;DHT22;11967;50.852;4.400;2024-01-30T04:35:03;14.10;99.90
23579;DHT22;11967;50.852;4.400;2024-01-30T04:37:29;14.10;99.90
23579;DHT22;11967;50.852;4.400;2024-01-30T04:39:55;14.10;99.90
23579;DHT22;11967;50.852;4.400;2024-01-30T04:42:20;14.10;99.90
23579;DHT22;11967;50.852;4.400;2024-01-30T04:44:46;14.10;99.90
23579;DHT22;11967;50.852;4.400;2024-01-30T04:47:11;14.20;99.90
23579;DHT22;11967;50.852;4.400;2024-01-30T04:49:40;14.20;99.90
23579;DHT22;11967;50.852;4.400;2024-01-30T04:52:07;14.20;99.90
23579;DHT22;11967;50.852;4.400;2024-01-30T04:54:33;14.20;99.90
23579;DHT22;11967;50.852;4.400;2024-01-30T04:57:00;14.30;99.90
23579;DHT22;11967;50.852;4.400;2024-01-30T04:59:25;14.30;99.90
23579;DHT22;11967;50.852;4.400;2024-01-30T05:01:51;14.30;99.90
23579;DHT22;11967;50.852;4.400;2024-01-30T05:04:16;14.30;99.90
23579;DHT22;11967;50.852;4.400;2024-01-30T05:06:43;14.30;99.90
23579;DHT22;11967;50.852;4.400;2024-01-30T05:09:09;14.30;99.90
23579;DHT22;11967;50.852;4.400;2024-01-30T05:11:38;14.40;99.90
23579;DHT22;11967;50.852;4.400;2024-01-30T05:14:05;14.40;99.90
23579;DHT22;11967;50.852;4.400;2024-01-30T05:16:31;14.40;99.90
23579;DHT22;11967;50.852;4.400;2024-01-30T05:18:57;14.40;99.90
23579;DHT22;11967;50.852;4.400;2024-01-30T05:21:23;14.40;99.90
23579;DHT22;11967;50.852;4.400;2024-01-30T05:23:48;14.40;99.90
23579;DHT22;11967;50.852;4.400;2024-01-30T05:26:14;14.40;99.90
23579;DHT22;11967;50.852;4.400;2024-01-30T05:28:39;14.30;99.90
23579;DHT22;11967;50.852;4.400;2024-01-30T05:31:05;14.40;99.90
23579;DHT22;11967;50.852;4.400;2024-01-30T05:33:31;14.40;99.90
23579;DHT22;11967;50.852;4.400;2024-01-30T05:35:56;14.30;99.90
23579;DHT22;11967;50.852;4.400;2024-01-30T05:38:22;14.30;99.90
23579;DHT22;11967;50.852;4.400;2024-01-30T05:40:47;14.30;99.90
23579;DHT22;11967;50.852;4.400;2024-01-30T05:43:13;14.20;99.90
23579;DHT22;11967;50.852;4.400;2024-01-30T05:45:39;14.30;99.90
23579;DHT22;11967;50.852;4.400;2024-01-30T05:48:05;14.30;99.90
23579;DHT22;11967;50.852;4.400;2024-01-30T05:50:30;14.30;99.90
23579;DHT22;11967;50.852;4.400;2024-01-30T05:52:56;14.20;99.90
23579;DHT22;11967;50.852;4.400;2024-01-30T05:55:22;14.30;99.90
23579;DHT22;11967;50.852;4.400;2024-01-30T05:57:48;14.20;99.90
23579;DHT22;11967;50.852;4.400;2024-01-30T06:00:13;14.20;99.90
23579;DHT22;11967;50.852;4.400;2024-01-30T06:02:39;14.20;99.90
23579;DHT22;11967;50.852;4.400;2024-01-30T06:05:05;14.20;99.90
23579;DHT22;11967;50.852;4.400;2024-01-30T06:07:31;14.30;99.90
23579;DHT22;11967;50.852;4.400;2024-01-30T06:09:57;14.30;99.90
23579;DHT22;11967;50.852;4.400;2024-01-30T06:12:22;14.20;99.90
23579;DHT22;11967;50.852;4.400;2024-01-30T06:14:48;14.10;99.90
23579;DHT22;11967;50.852;4.400;2024-01-30T06:17:14;14.10;99.90
23579;DHT22;11967;50.852;4.400;2024-01-30T06:19:39;14.20;99.90
23579;DHT22;11967;50.852;4.400;2024-01-30T06:22:05;14.10;99.90
23579;DHT22;11967;50.852;4.400;2024-01-30T06:24:31;14.10;99.90
23579;DHT22;11967;50.852;4.400;2024-01-30T06:26:56;14.10;99.90
23579;DHT22;11967;50.852;4.400;2024-01-30T06:29:22;14.10;99.90
23579;DHT22;11967;50.852;4.400;2024-01-30T06:31:50;14.10;99.90
23579;DHT22;11967;50.852;4.400;2024-01-30T06:34:15;14.20;99.90
23579;DHT22;11967;50.852;4.400;2024-01-30T06:36:41;14.10;99.90
23579;DHT22;11967;50.852;4.400;2024-01-30T06:39:07;14.10;99.90
23579;DHT22;11967;50.852;4.400;2024-01-30T06:41:33;14.10;99.90
23579;DHT22;11967;50.852;4.400;2024-01-30T06:43:58;14.10;99.90
23579;DHT22;11967;50.852;4.400;2024-01-30T06:46:24;14.00;99.90
23579;DHT22;11967;50.852;4.400;2024-01-30T06:48:49;13.90;99.90
23579;DHT22;11967;50.852;4.400;2024-01-30T06:51:15;13.90;99.90
23579;DHT22;11967;50.852;4.400;2024-01-30T06:53:41;13.90;99.90
23579;DHT22;11967;50.852;4.400;2024-01-30T06:56:07;13.90;99.90
23579;DHT22;11967;50.852;4.400;2024-01-30T06:58:33;14.00;99.90
23579;DHT22;11967;50.852;4.400;2024-01-30T07:00:58;13.90;99.90
23579;DHT22;11967;50.852;4.400;2024-01-30T07:03:24;14.00;99.90
23579;DHT22;11967;50.852;4.400;2024-01-30T07:05:50;14.00;99.90
23579;DHT22;11967;50.852;4.400;2024-01-30T07:08:16;14.00;99.90
23579;DHT22;11967;50.852;4.400;2024-01-30T07:10:43;14.00;99.90
23579;DHT22;11967;50.852;4.400;2024-01-30T07:13:10;14.20;99.90
23579;DHT22;11967;50.852;4.400;2024-01-30T07:15:35;14.30;99.90
23579;DHT22;11967;50.852;4.400;2024-01-30T07:18:02;14.30;99.90
23579;DHT22;11967;50.852;4.400;2024-01-30T07:20:28;14.30;99.90
23579;DHT22;11967;50.852;4.400;2024-01-30T07:22:55;14.40;99.90
23579;DHT22;11967;50.852;4.400;2024-01-30T07:25:21;14.50;99.90
23579;DHT22;11967;50.852;4.400;2024-01-30T07:27:47;14.40;99.90
23579;DHT22;11967;50.852;4.400;2024-01-30T07:30:13;14.40;99.90
23579;DHT22;11967;50.852;4.400;2024-01-30T07:32:38;14.30;99.90
23579;DHT22;11967;50.852;4.400;2024-01-30T07:35:04;14.20;99.90
23579;DHT22;11967;50.852;4.400;2024-01-30T07:37:31;14.10;99.90
23579;DHT22;11967;50.852;4.400;2024-01-30T07:39:56;14.20;99.90
23579;DHT22;11967;50.852;4.400;2024-01-30T07:42:22;14.40;99.90
23579;DHT22;11967;50.852;4.400;2024-01-30T07:44:47;14.40;99.90
23579;DHT22;11967;50.852;4.400;2024-01-30T07:47:13;14.30;99.90
23579;DHT22;11967;50.852;4.400;2024-01-30T07:49:39;14.30;99.90
23579;DHT22;11967;50.852;4.400;2024-01-30T07:52:05;14.30;99.90
23579;DHT22;11967;50.852;4.400;2024-01-30T07:54:31;14.10;99.90
23579;DHT22;11967;50.852;4.400;2024-01-30T07:56:59;14.10;99.90
23579;DHT22;11967;50.852;4.400;2024-01-30T07:59:25;14.10;99.90
23579;DHT22;11967;50.852;4.400;2024-01-30T08:01:51;14.00;99.90
23579;DHT22;11967;50.852;4.400;2024-01-30T08:04:17;14.20;99.90
23579;DHT22;11967;50.852;4.400;2024-01-30T08:06:43;14.30;99.90
23579;DHT22;11967;50.852;4.400;2024-01-30T08:09:08;14.20;99.90
23579;DHT22;11967;50.852;4.400;2024-01-30T08:11:34;14.20;99.90
23579;DHT22;11967;50.852;4.400;2024-01-30T08:14:00;14.00;99.90
23579;DHT22;11967;50.852;4.400;2024-01-30T08:16:25;14.00;99.90
23579;DHT22;11967;50.852;4.400;2024-01-30T08:18:51;13.90;99.90
23579;DHT22;11967;50.852;4.400;2024-01-30T08:21:18;14.10;99.90
23579;DHT22;11967;50.852;4.400;2024-01-30T08:23:44;14.00;99.90
23579;DHT22;11967;50.852;4.400;2024-01-30T08:26:10;14.00;99.90
23579;DHT22;11967;50.852;4.400;2024-01-30T08:28:35;14.00;99.90
23579;DHT22;11967;50.852;4.400;2024-01-30T08:31:01;14.00;99.90
23579;DHT22;11967;50.852;4.400;2024-01-30T08:33:26;14.10;99.90
23579;DHT22;11967;50.852;4.400;2024-01-30T08:35:52;14.10;99.90
23579;DHT22;11967;50.852;4.400;2024-01-30T08:38:18;14.10;99.90
23579;DHT22;11967;50.852;4.400;2024-01-30T08:40:44;14.00;99.90
23579;DHT22;11967;50.852;4.400;2024-01-30T08:43:10;13.90;99.90
23579;DHT22;11967;50.852;4.400;2024-01-30T08:45:36;13.90;99.90
23579;DHT22;11967;50.852;4.400;2024-01-30T08:48:01;13.80;99.90
23579;DHT22;11967;50.852;4.400;2024-01-30T08:50:27;13.90;99.90
23579;DHT22;11967;50.852;4.400;2024-01-30T08:52:53;13.90;99.90
23579;DHT22;11967;50.852;4.400;2024-01-30T08:55:19;13.90;99.90
23579;DHT22;11967;50.852;4.400;2024-01-30T08:57:44;13.90;99.90
23579;DHT22;11967;50.852;4.400;2024-01-30T09:00:10;13.90;99.90
23579;DHT22;11967;50.852;4.400;2024-01-30T09:02:36;13.90;99.90
23579;DHT22;11967;50.852;4.400;2024-01-30T09:05:02;13.90;99.90
23579;DHT22;11967;50.852;4.400;2024-01-30T09:07:28;13.90;99.90
23579;DHT22;11967;50.852;4.400;2024-01-30T09:09:53;13.90;99.90
23579;DHT22;11967;50.852;4.400;2024-01-30T09:12:19;14.00;99.90
23579;DHT22;11967;50.852;4.400;2024-01-30T09:14:45;14.00;99.90
23579;DHT22;11967;50.852;4.400;2024-01-30T09:17:10;14.00;99.90
23579;DHT22;11967;50.852;4.400;2024-01-30T09:19:36;13.90;99.90
23579;DHT22;11967;50.852;4.400;2024-01-30T09:22:01;13.90;99.90
23579;DHT22;11967;50.852;4.400;2024-01-30T09:24:27;13.90;99.90
23579;DHT22;11967;50.852;4.400;2024-01-30T09:26:53;13.90;99.90
23579;DHT22;11967;50.852;4.400;2024-01-30T09:29:18;13.90;99.90
23579;DHT22;11967;50.852;4.400;2024-01-30T09:31:45;14.00;99.90
23579;DHT22;11967;50.852;4.400;2024-01-30T09:34:12;14.10;99.90
23579;DHT22;11967;50.852;4.400;2024-01-30T09:36:37;14.10;99.90
23579;DHT22;11967;50.852;4.400;2024-01-30T09:39:03;14.10;99.90
23579;DHT22;11967;50.852;4.400;2024-01-30T09:41:32;14.20;99.90
23579;DHT22;11967;50.852;4.400;2024-01-30T09:43:59;14.30;99.90
23579;DHT22;11967;50.852;4.400;2024-01-30T09:46:27;14.30;99.90
23579;DHT22;11967;50.852;4.400;2024-01-30T09:48:54;14.30;99.90
23579;DHT22;11967;50.852;4.400;2024-01-30T09:51:21;14.20;99.90
23579;DHT22;11967;50.852;4.400;2024-01-30T09:53:48;14.10;99.90
23579;DHT22;11967;50.852;4.400;2024-01-30T09:56:14;14.00;99.90
23579;DHT22;11967;50.852;4.400;2024-01-30T09:58:40;14.00;99.90
23579;DHT22;11967;50.852;4.400;2024-01-30T10:01:07;13.80;99.90
23579;DHT22;11967;50.852;4.400;2024-01-30T10:03:33;13.80;99.90
23579;DHT22;11967;50.852;4.400;2024-01-30T10:05:59;13.70;99.90
23579;DHT22;11967;50.852;4.400;2024-01-30T10:08:26;13.70;99.90
23579;DHT22;11967;50.852;4.400;2024-01-30T10:10:52;13.70;99.90
23579;DHT22;11967;50.852;4.400;2024-01-30T10:13:18;13.70;99.90
23579;DHT22;11967;50.852;4.400;2024-01-30T10:15:44;13.60;99.90
23579;DHT22;11967;50.852;4.400;2024-01-30T10:18:10;13.50;99.90
23579;DHT22;11967;50.852;4.400;2024-01-30T10:20:36;13.50;99.90
23579;DHT22;11967;50.852;4.400;2024-01-30T10:23:02;13.60;99.90
23579;DHT22;11967;50.852;4.400;2024-01-30T10:25:30;13.70;99.90
23579;DHT22;11967;50.852;4.400;2024-01-30T10:27:56;13.90;99.90
23579;DHT22;11967;50.852;4.400;2024-01-30T10:30:22;13.80;99.90
23579;DHT22;11967;50.852;4.400;2024-01-30T10:32:48;13.90;99.90
23579;DHT22;11967;50.852;4.400;2024-01-30T10:35:15;13.80;99.90
23579;DHT22;11967;50.852;4.400;2024-01-30T10:37:43;13.70;99.90
23579;DHT22;11967;50.852;4.400;2024-01-30T10:40:13;13.60;99.90
23579;DHT22;11967;50.852;4.400;2024-01-30T10:42:43;13.70;99.90
23579;DHT22;11967;50.852;4.400;2024-01-30T10:45:13;13.60;99.90
23579;DHT22;11967;50.852;4.400;2024-01-30T10:47:55;13.70;99.90
23579;DHT22;11967;50.852;4.400;2024-01-30T10:50:27;13.50;99.90
23579;DHT22;11967;50.852;4.400;2024-01-30T10:52:54;13.40;99.90
23579;DHT22;11967;50.852;4.400;2024-01-30T10:55:21;13.30;99.90
23579;DHT22;11967;50.852;4.400;2024-01-30T10:57:48;13.30;99.90
23579;DHT22;11967;50.852;4.400;2024-01-30T11:00:15;13.30;99.90
23579;DHT22;11967;50.852;4.400;2024-01-30T11:02:45;13.40;99.90
23579;DHT22;11967;50.852;4.400;2024-01-30T11:05:11;13.30;99.90
23579;DHT22;11967;50.852;4.400;2024-01-30T11:07:39;13.30;99.90
23579;DHT22;11967;50.852;4.400;2024-01-30T11:10:06;13.50;99.90
23579;DHT22;11967;50.852;4.400;2024-01-30T11:12:38;13.50;99.90
23579;DHT22;11967;50.852;4.400;2024-01-30T11:15:11;13.50;99.90
23579;DHT22;11967;50.852;4.400;2024-01-30T11:20:19;13.50;99.90
23579;DHT22;11967;50.852;4.400;2024-01-30T11:22:47;13.40;99.90
23579;DHT22;11967;50.852;4.400;2024-01-30T11:25:14;13.30;99.90
23579;DHT22;11967;50.852;4.400;2024-01-30T11:27:42;13.30;99.90
23579;DHT22;11967;50.852;4.400;2024-01-30T11:30:08;13.30;99.90
23579;DHT22;11967;50.852;4.400;2024-01-30T11:32:34;13.30;99.90
23579;DHT22;11967;50.852;4.400;2024-01-30T11:35:00;13.20;99.90
23579;DHT22;11967;50.852;4.400;2024-01-30T11:37:26;13.20;99.90
23579;DHT22;11967;50.852;4.400;2024-01-30T11:39:53;13.20;99.90
23579;DHT22;11967;50.852;4.400;2024-01-30T11:42:21;13.00;99.90
23579;DHT22;11967;50.852;4.400;2024-01-30T11:44:47;12.90;99.90
23579;DHT22;11967;50.852;4.400;2024-01-30T11:47:14;12.90;99.90
23579;DHT22;11967;50.852;4.400;2024-01-30T11:49:40;12.90;99.90
23579;DHT22;11967;50.852;4.400;2024-01-30T11:52:07;13.00;99.90
23579;DHT22;11967;50.852;4.400;2024-01-30T11:54:33;13.00;99.90
23579;DHT22;11967;50.852;4.400;2024-01-30T11:56:58;13.00;99.90
23579;DHT22;11967;50.852;4.400;2024-01-30T11:59:24;13.00;99.90
23579;DHT22;11967;50.852;4.400;2024-01-30T12:01:52;13.10;99.90
23579;DHT22;11967;50.852;4.400;2024-01-30T12:04:18;13.10;99.90
23579;DHT22;11967;50.852;4.400;2024-01-30T12:06:43;13.10;99.90
23579;DHT22;11967;50.852;4.400;2024-01-30T12:09:09;13.30;99.90
23579;DHT22;11967;50.852;4.400;2024-01-30T12:11:47;13.50;99.90
23579;DHT22;11967;50.852;4.400;2024-01-30T12:14:14;13.60;99.90
23579;DHT22;11967;50.852;4.400;2024-01-30T12:16:40;13.70;99.90
23579;DHT22;11967;50.852;4.400;2024-01-30T12:19:07;13.80;99.90
23579;DHT22;11967;50.852;4.400;2024-01-30T12:21:34;13.90;99.90
23579;DHT22;11967;50.852;4.400;2024-01-30T12:24:00;14.20;99.90
23579;DHT22;11967;50.852;4.400;2024-01-30T12:26:26;14.30;99.90
23579;DHT22;11967;50.852;4.400;2024-01-30T12:28:56;14.20;99.90
23579;DHT22;11967;50.852;4.400;2024-01-30T12:31:27;14.20;99.90
23579;DHT22;11967;50.852;4.400;2024-01-30T12:33:53;14.10;99.90
23579;DHT22;11967;50.852;4.400;2024-01-30T12:36:21;14.00;99.90
23579;DHT22;11967;50.852;4.400;2024-01-30T12:38:47;13.80;99.90
23579;DHT22;11967;50.852;4.400;2024-01-30T12:41:12;13.80;99.90
23579;DHT22;11967;50.852;4.400;2024-01-30T12:43:38;14.10;99.90
23579;DHT22;11967;50.852;4.400;2024-01-30T12:46:04;14.20;99.90
23579;DHT22;11967;50.852;4.400;2024-01-30T12:48:31;14.50;99.90
23579;DHT22;11967;50.852;4.400;2024-01-30T12:50:57;14.50;99.90
23579;DHT22;11967;50.852;4.400;2024-01-30T12:53:23;14.50;99.90
23579;DHT22;11967;50.852;4.400;2024-01-30T12:55:48;14.60;99.90
23579;DHT22;11967;50.852;4.400;2024-01-30T12:58:15;14.60;99.90
23579;DHT22;11967;50.852;4.400;2024-01-30T13:00:41;14.60;99.90
23579;DHT22;11967;50.852;4.400;2024-01-30T13:03:10;14.40;99.90
23579;DHT22;11967;50.852;4.400;2024-01-30T13:05:37;14.50;99.90
23579;DHT22;11967;50.852;4.400;2024-01-30T13:08:02;14.60;99.90
23579;DHT22;11967;50.852;4.400;2024-01-30T13:10:29;14.60;99.90
23579;DHT22;11967;50.852;4.400;2024-01-30T13:12:54;14.70;99.90
23579;DHT22;11967;50.852;4.400;2024-01-30T13:15:20;14.70;99.90
23579;DHT22;11967;50.852;4.400;2024-01-30T13:17:45;14.70;99.90
23579;DHT22;11967;50.852;4.400;2024-01-30T13:20:14;14.80;99.90
23579;DHT22;11967;50.852;4.400;2024-01-30T13:22:47;14.90;99.90
23579;DHT22;11967;50.852;4.400;2024-01-30T13:25:12;14.60;99.90
23579;DHT22;11967;50.852;4.400;2024-01-30T13:27:38;14.30;99.90
23579;DHT22;11967;50.852;4.400;2024-01-30T13:30:04;14.30;99.90
23579;DHT22;11967;50.852;4.400;2024-01-30T13:32:30;14.10;99.90
23579;DHT22;11967;50.852;4.400;2024-01-30T13:34:56;13.90;99.90
23579;DHT22;11967;50.852;4.400;2024-01-30T13:37:22;13.80;99.90
23579;DHT22;11967;50.852;4.400;2024-01-30T13:39:48;13.70;99.90
23579;DHT22;11967;50.852;4.400;2024-01-30T13:42:14;13.70;99.90
23579;DHT22;11967;50.852;4.400;2024-01-30T13:44:39;13.80;99.90
23579;DHT22;11967;50.852;4.400;2024-01-30T13:47:05;13.80;99.90
23579;DHT22;11967;50.852;4.400;2024-01-30T13:49:31;13.70;99.90
23579;DHT22;11967;50.852;4.400;2024-01-30T13:51:56;13.80;99.90
23579;DHT22;11967;50.852;4.400;2024-01-30T13:54:24;13.70;99.90
23579;DHT22;11967;50.852;4.400;2024-01-30T13:56:50;13.50;99.90
23579;DHT22;11967;50.852;4.400;2024-01-30T13:59:16;13.40;99.90
23579;DHT22;11967;50.852;4.400;2024-01-30T14:01:48;13.40;99.90
23579;DHT22;11967;50.852;4.400;2024-01-30T14:04:13;13.30;99.90
23579;DHT22;11967;50.852;4.400;2024-01-30T14:06:40;13.30;99.90
23579;DHT22;11967;50.852;4.400;2024-01-30T14:09:06;13.20;99.90
23579;DHT22;11967;50.852;4.400;2024-01-30T14:11:32;13.20;99.90
23579;DHT22;11967;50.852;4.400;2024-01-30T14:13:57;13.30;99.90
23579;DHT22;11967;50.852;4.400;2024-01-30T14:16:23;13.20;99.90
23579;DHT22;11967;50.852;4.400;2024-01-30T14:18:50;13.20;99.90
23579;DHT22;11967;50.852;4.400;2024-01-30T14:21:15;13.20;99.90
23579;DHT22;11967;50.852;4.400;2024-01-30T14:23:41;13.20;99.90
23579;DHT22;11967;50.852;4.400;2024-01-30T14:26:07;13.30;99.90
23579;DHT22;11967;50.852;4.400;2024-01-30T14:28:32;13.30;99.90
23579;DHT22;11967;50.852;4.400;2024-01-30T14:30:59;13.10;99.90
23579;DHT22;11967;50.852;4.400;2024-01-30T14:33:25;13.00;99.90
23579;DHT22;11967;50.852;4.400;2024-01-30T14:35:51;13.00;99.90
23579;DHT22;11967;50.852;4.400;2024-01-30T14:38:18;12.90;99.90
23579;DHT22;11967;50.852;4.400;2024-01-30T14:40:44;12.90;99.90
23579;DHT22;11967;50.852;4.400;2024-01-30T14:43:09;13.00;99.90
23579;DHT22;11967;50.852;4.400;2024-01-30T14:45:35;13.00;99.90
23579;DHT22;11967;50.852;4.400;2024-01-30T14:48:01;13.00;99.90
23579;DHT22;11967;50.852;4.400;2024-01-30T14:50:27;13.00;99.90
23579;DHT22;11967;50.852;4.400;2024-01-30T14:52:53;13.10;99.90
23579;DHT22;11967;50.852;4.400;2024-01-30T14:55:19;13.10;99.90
23579;DHT22;11967;50.852;4.400;2024-01-30T14:57:45;13.10;99.90
23579;DHT22;11967;50.852;4.400;2024-01-30T15:00:12;13.20;99.90
23579;DHT22;11967;50.852;4.400;2024-01-30T15:02:37;13.20;99.90
23579;DHT22;11967;50.852;4.400;2024-01-30T15:05:04;13.20;99.90
23579;DHT22;11967;50.852;4.400;2024-01-30T15:07:30;13.20;99.90
23579;DHT22;11967;50.852;4.400;2024-01-30T15:09:55;13.20;99.90
23579;DHT22;11967;50.852;4.400;2024-01-30T15:12:21;13.10;99.90
23579;DHT22;11967;50.852;4.400;2024-01-30T15:14:46;13.20;99.90
23579;DHT22;11967;50.852;4.400;2024-01-30T15:17:17;13.20;99.90
23579;DHT22;11967;50.852;4.400;2024-01-30T15:19:43;13.30;99.90
23579;DHT22;11967;50.852;4.400;2024-01-30T15:22:09;13.20;99.90
23579;DHT22;11967;50.852;4.400;2024-01-30T15:24:34;13.20;99.90
23579;DHT22;11967;50.852;4.400;2024-01-30T15:27:01;13.20;99.90